Time;durP1;ratioP1;P1;durP2;ratioP2;P2;SDS_P1;SDS_P2;PMS_P1;PMS_P2;Temp;Humidity;BMP_temperature;BMP_pressure;BME280_temperature;BME280_humidity;BME280_pressure;Samples;Min_cycle;Max_cycle;Signal;HPM_P1;HPM_P2
2023/04/05 00:00:39;;;;;;;18.83;12.50;;;1.30;99.90;;;;;;5061721;28;20134;-74
2023/04/05 00:03:05;;;;;;;15.18;10.90;;;1.30;99.90;;;;;;5066823;28;20053;-74
2023/04/05 00:05:33;;;;;;;19.55;11.93;;;1.30;99.90;;;;;;5066565;28;20083;-74
2023/04/05 00:08:03;;;;;;;17.42;11.73;;;1.20;99.90;;;;;;5067346;28;20044;-73
2023/04/05 00:10:30;;;;;;;16.02;11.43;;;1.20;99.90;;;;;;5056707;28;20119;-74
2023/04/05 00:12:56;;;;;;;17.63;11.25;;;1.20;99.90;;;;;;5059573;28;20567;-74
2023/04/05 00:15:23;;;;;;;21.50;12.05;;;1.20;99.90;;;;;;5064625;28;20048;-74
2023/04/05 00:17:49;;;;;;;15.52;11.23;;;1.20;99.90;;;;;;5059924;28;20072;-74
2023/04/05 00:20:15;;;;;;;26.40;11.35;;;1.10;99.90;;;;;;5065687;28;20120;-74
2023/04/05 00:22:45;;;;;;;16.70;12.00;;;1.10;99.90;;;;;;5056575;28;20128;-74
2023/04/05 00:25:11;;;;;;;14.75;11.93;;;1.10;99.90;;;;;;5055343;28;20075;-74
2023/04/05 00:27:38;;;;;;;23.02;12.88;;;1.10;99.90;;;;;;5061723;28;20045;-74
2023/04/05 00:30:05;;;;;;;15.88;11.63;;;1.10;99.90;;;;;;5048697;28;20045;-74
2023/04/05 00:32:31;;;;;;;16.42;11.93;;;1.00;99.90;;;;;;5065406;28;20044;-73
2023/04/05 00:34:58;;;;;;;20.50;12.15;;;1.00;99.90;;;;;;5066463;28;20052;-74
2023/04/05 00:37:24;;;;;;;19.95;13.35;;;1.00;99.90;;;;;;5067221;28;20083;-74
2023/04/05 00:39:50;;;;;;;17.88;12.10;;;1.00;99.90;;;;;;5059354;28;20080;-74
2023/04/05 00:42:15;;;;;;;18.10;12.43;;;1.00;99.90;;;;;;5057319;28;20045;-74
2023/04/05 00:44:41;;;;;;;17.23;12.35;;;0.90;99.90;;;;;;5060322;28;20939;-74
2023/04/05 00:47:07;;;;;;;17.33;12.88;;;0.90;99.90;;;;;;5055507;28;20052;-74
2023/04/05 00:49:35;;;;;;;16.33;12.52;;;0.90;99.90;;;;;;5058890;28;20036;-74
2023/04/05 00:52:01;;;;;;;15.50;12.15;;;0.90;99.90;;;;;;5066963;28;20497;-74
2023/04/05 00:54:31;;;;;;;19.27;12.73;;;0.80;99.90;;;;;;5063334;28;20041;-73
2023/04/05 00:56:58;;;;;;;19.88;11.88;;;0.80;99.90;;;;;;5067747;28;20082;-74
2023/04/05 00:59:25;;;;;;;21.58;12.85;;;0.80;99.90;;;;;;5066663;28;20078;-74
2023/04/05 01:02:12;;;;;;;19.30;12.90;;;0.80;99.90;;;;;;5062597;28;20080;-74
2023/04/05 01:04:48;;;;;;;19.27;13.15;;;0.80;99.90;;;;;;5063361;28;20096;-74
2023/04/05 01:07:42;;;;;;;16.35;12.52;;;0.70;99.90;;;;;;5060746;28;20135;-74
2023/04/05 01:10:12;;;;;;;18.48;12.85;;;0.70;99.90;;;;;;5061156;28;20060;-74
2023/04/05 01:12:38;;;;;;;19.05;12.85;;;0.60;99.90;;;;;;5059541;28;20055;-74
2023/04/05 01:15:04;;;;;;;18.80;11.80;;;0.60;99.90;;;;;;5065977;28;20056;-74
2023/04/05 01:17:35;;;;;;;18.35;13.00;;;0.60;99.90;;;;;;5066744;28;20517;-74
2023/04/05 01:20:09;;;;;;;16.98;11.70;;;0.60;99.90;;;;;;5064437;28;20044;-74
2023/04/05 01:23:02;;;;;;;17.42;12.75;;;0.50;99.90;;;;;;5059488;28;20135;-74
2023/04/05 01:25:48;;;;;;;20.80;13.00;;;0.60;99.90;;;;;;5067011;28;20033;-74
2023/04/05 01:28:26;;;;;;;18.83;13.50;;;0.60;99.90;;;;;;5065920;28;20413;-73
2023/04/05 01:31:05;;;;;;;19.27;12.45;;;0.60;99.90;;;;;;5061282;28;20045;-73
2023/04/05 01:33:54;;;;;;;19.08;12.13;;;0.50;99.90;;;;;;5059956;28;20048;-73
2023/04/05 01:36:42;;;;;;;23.42;13.38;;;0.50;99.90;;;;;;5070190;28;20056;-73
2023/04/05 01:39:13;;;;;;;24.73;13.13;;;0.50;99.90;;;;;;5066262;28;20057;-74
2023/04/05 01:41:40;;;;;;;17.48;12.45;;;0.50;99.90;;;;;;5062949;28;20155;-74
2023/04/05 01:44:06;;;;;;;24.33;14.40;;;0.50;99.90;;;;;;5061471;28;20507;-74
2023/04/05 01:46:32;;;;;;;19.33;12.55;;;0.50;99.90;;;;;;5067708;28;20082;-74
2023/04/05 01:48:57;;;;;;;22.92;13.20;;;0.40;99.90;;;;;;5068781;28;20079;-74
2023/04/05 01:51:23;;;;;;;22.85;12.48;;;0.40;99.90;;;;;;5067150;28;20083;-74
2023/04/05 01:53:48;;;;;;;20.88;12.55;;;0.40;99.90;;;;;;5066388;28;20102;-73
2023/04/05 01:56:15;;;;;;;17.55;12.23;;;0.40;99.90;;;;;;5058192;28;20052;-73
2023/04/05 01:58:41;;;;;;;20.17;12.55;;;0.40;99.90;;;;;;5065735;28;20056;-74
2023/04/05 02:01:06;;;;;;;14.38;11.68;;;0.40;99.90;;;;;;5068981;28;20402;-73
2023/04/05 02:03:32;;;;;;;19.83;13.02;;;0.30;99.90;;;;;;5067650;28;20052;-73
2023/04/05 02:05:58;;;;;;;19.48;13.52;;;0.30;99.90;;;;;;5063463;28;20048;-73
2023/04/05 02:08:23;;;;;;;23.27;14.40;;;0.30;99.90;;;;;;5069062;28;20048;-73
2023/04/05 02:10:52;;;;;;;20.92;13.10;;;0.30;99.90;;;;;;5063527;28;20586;-73
2023/04/05 02:13:17;;;;;;;;;;;0.30;99.90;;;;;;5067265;28;20118;-73
2023/04/05 02:15:49;;;;;;;22.08;13.20;;;0.20;99.90;;;;;;5061551;28;19967;-73
2023/04/05 02:18:20;;;;;;;27.55;13.38;;;0.20;99.90;;;;;;5058099;28;20763;-73
2023/04/05 02:20:48;;;;;;;19.65;14.05;;;0.10;99.90;;;;;;5065335;28;20074;-73
2023/04/05 02:23:18;;;;;;;20.30;13.18;;;0.10;99.90;;;;;;5068027;28;20044;-73
2023/04/05 02:25:44;;;;;;;19.92;14.05;;;0.10;99.90;;;;;;5057661;28;20053;-73
2023/04/05 02:28:10;;;;;;;18.88;12.70;;;0.10;99.90;;;;;;5068857;28;20040;-73
2023/04/05 02:30:36;;;;;;;19.02;12.73;;;0.10;99.90;;;;;;5062646;28;20089;-73
2023/04/05 02:33:02;;;;;;;25.17;13.70;;;0.00;99.90;;;;;;5064701;28;20056;-73
2023/04/05 02:35:27;;;;;;;15.68;12.63;;;0.00;99.90;;;;;;5067366;28;20051;-73
2023/04/05 02:37:53;;;;;;;21.08;13.00;;;0.00;99.90;;;;;;5068264;28;20059;-73
2023/04/05 02:40:20;;;;;;;21.02;13.90;;;0.00;99.90;;;;;;5054524;28;20131;-73
2023/04/05 02:42:46;;;;;;;17.83;12.95;;;0.00;99.90;;;;;;5063012;28;20048;-73
2023/04/05 02:45:12;;;;;;;23.05;12.88;;;0.00;99.90;;;;;;5060697;28;20053;-73
2023/04/05 02:47:37;;;;;;;22.33;13.77;;;0.00;99.90;;;;;;5058752;28;20040;-73
2023/04/05 02:50:03;;;;;;;19.55;12.45;;;0.00;99.90;;;;;;5065005;28;20559;-73
2023/04/05 02:52:31;;;;;;;19.02;14.55;;;-0.10;99.90;;;;;;5068694;28;20044;-73
2023/04/05 02:54:56;;;;;;;21.45;13.68;;;-0.10;99.90;;;;;;5064120;28;20049;-73
2023/04/05 02:57:22;;;;;;;18.48;13.45;;;-0.20;99.90;;;;;;5060920;28;20048;-73
2023/04/05 02:59:48;;;;;;;22.52;13.85;;;-0.20;99.90;;;;;;5068632;28;20044;-73
2023/04/05 03:02:13;;;;;;;18.05;13.20;;;-0.20;99.90;;;;;;5066512;28;20052;-73
2023/04/05 03:04:39;;;;;;;22.20;13.90;;;-0.20;99.90;;;;;;5067784;28;20056;-73
2023/04/05 03:07:06;;;;;;;20.52;13.13;;;-0.20;99.90;;;;;;5066725;28;20110;-73
2023/04/05 03:09:32;;;;;;;20.83;14.32;;;-0.20;99.90;;;;;;5060036;28;20083;-73
2023/04/05 03:12:02;;;;;;;21.67;15.30;;;-0.20;99.90;;;;;;5055728;28;20096;-73
2023/04/05 03:14:31;;;;;;;19.83;14.50;;;-0.20;99.90;;;;;;5067223;28;20146;-73
2023/04/05 03:16:57;;;;;;;22.40;14.93;;;-0.20;99.90;;;;;;5053942;28;20056;-73
2023/04/05 03:19:25;;;;;;;18.95;14.68;;;-0.20;99.90;;;;;;5063613;28;20044;-73
2023/04/05 03:21:51;;;;;;;23.30;14.48;;;-0.20;99.90;;;;;;5062473;28;20057;-72
2023/04/05 03:24:17;;;;;;;21.63;14.52;;;-0.30;99.90;;;;;;5062927;28;20041;-72
2023/04/05 03:26:44;;;;;;;19.83;14.27;;;-0.30;99.90;;;;;;5069030;28;20055;-72
2023/04/05 03:29:11;;;;;;;25.13;15.38;;;-0.30;99.90;;;;;;5058451;28;20573;-72
2023/04/05 03:31:37;;;;;;;21.80;14.93;;;-0.30;99.90;;;;;;5063876;28;20145;-72
2023/04/05 03:34:03;;;;;;;21.77;15.90;;;-0.30;99.90;;;;;;5062215;28;20569;-72
2023/04/05 03:36:29;;;;;;;23.83;15.65;;;-0.30;99.90;;;;;;5062717;28;20044;-72
2023/04/05 03:38:55;;;;;;;25.17;15.65;;;-0.30;99.90;;;;;;5064845;28;20146;-72
2023/04/05 03:41:21;;;;;;;21.35;16.42;;;-0.30;99.90;;;;;;5062154;28;20642;-73
2023/04/05 03:43:48;;;;;;;21.45;14.10;;;-0.40;99.90;;;;;;5062521;28;20067;-73
2023/04/05 03:46:14;;;;;;;21.75;14.80;;;-0.40;99.90;;;;;;5063421;28;20040;-73
2023/04/05 03:48:39;;;;;;;22.33;15.23;;;-0.40;99.90;;;;;;5065543;28;20049;-73
2023/04/05 03:51:06;;;;;;;19.80;14.80;;;-0.40;99.90;;;;;;5068423;28;20410;-73
2023/04/05 03:53:32;;;;;;;20.75;14.57;;;-0.50;99.90;;;;;;5063318;28;20139;-72
2023/04/05 03:55:58;;;;;;;22.58;14.35;;;-0.50;99.90;;;;;;5061780;28;20151;-72
2023/04/05 03:58:27;;;;;;;19.48;16.33;;;-0.50;99.90;;;;;;5064038;28;20107;-73
2023/04/05 04:00:54;;;;;;;20.25;15.77;;;-0.50;99.90;;;;;;5064761;28;20045;-73
2023/04/05 04:03:20;;;;;;;19.65;14.82;;;-0.50;99.90;;;;;;5064760;28;20124;-72
2023/04/05 04:05:46;;;;;;;25.38;15.30;;;-0.70;99.90;;;;;;5063114;28;20059;-71
2023/04/05 04:08:12;;;;;;;26.75;16.02;;;-0.60;99.90;;;;;;5061735;28;20957;-72
2023/04/05 04:10:38;;;;;;;23.63;17.00;;;-0.60;99.90;;;;;;5059626;28;20078;-72
2023/04/05 04:13:03;;;;;;;23.27;16.55;;;-0.60;99.90;;;;;;5062914;28;20052;-73
2023/04/05 04:15:30;;;;;;;23.02;16.35;;;-0.60;99.90;;;;;;5066327;28;20485;-72
2023/04/05 04:17:56;;;;;;;28.63;16.33;;;-0.60;99.90;;;;;;5066127;28;20057;-73
2023/04/05 04:20:22;;;;;;;22.73;16.67;;;-0.60;99.90;;;;;;5058457;28;20045;-72
2023/04/05 04:22:48;;;;;;;22.67;16.08;;;-0.70;99.90;;;;;;5059540;28;20056;-73
2023/04/05 04:25:16;;;;;;;19.63;15.80;;;-0.60;99.90;;;;;;5055055;28;20053;-72
2023/04/05 04:27:43;;;;;;;22.27;16.23;;;-0.70;99.90;;;;;;5064304;28;20098;-73
2023/04/05 04:30:12;;;;;;;30.55;18.48;;;-0.70;99.90;;;;;;5064555;28;20052;-72
2023/04/05 04:32:51;;;;;;;24.10;17.02;;;-0.70;99.90;;;;;;5063480;28;20532;-72
2023/04/05 04:35:26;;;;;;;23.80;17.50;;;-0.70;99.90;;;;;;5056230;28;20041;-72
2023/04/05 04:37:58;;;;;;;24.88;16.98;;;-0.70;99.90;;;;;;5057368;28;20424;-72
2023/04/05 04:40:38;;;;;;;24.58;17.23;;;-0.70;99.90;;;;;;5058857;28;20459;-73
2023/04/05 04:43:13;;;;;;;25.38;18.13;;;-0.70;99.90;;;;;;5058418;28;20145;-72
2023/04/05 04:45:39;;;;;;;30.48;19.55;;;-0.70;99.90;;;;;;5065677;28;20040;-72
2023/04/05 04:48:05;;;;;;;21.52;17.15;;;-0.70;99.90;;;;;;5067427;28;20047;-72
2023/04/05 04:50:31;;;;;;;23.20;16.80;;;-0.70;99.90;;;;;;5063961;28;20067;-72
2023/04/05 04:52:58;;;;;;;20.52;16.42;;;-0.70;99.90;;;;;;5062459;28;20044;-73
2023/04/05 04:55:24;;;;;;;19.33;15.85;;;-0.70;99.90;;;;;;5062776;28;20571;-72
2023/04/05 04:57:54;;;;;;;20.05;15.48;;;-0.80;99.90;;;;;;5055803;28;20051;-72
2023/04/05 05:00:21;;;;;;;30.58;17.08;;;-0.70;99.90;;;;;;5061160;28;20051;-72
2023/04/05 05:02:47;;;;;;;27.55;17.40;;;-0.70;99.90;;;;;;5062396;28;20056;-72
2023/04/05 05:05:13;;;;;;;21.20;15.55;;;-0.80;99.90;;;;;;5054601;28;20060;-72
2023/04/05 05:07:40;;;;;;;25.83;18.45;;;-0.80;99.90;;;;;;5057406;28;20049;-72
2023/04/05 05:10:07;;;;;;;22.48;15.55;;;-0.80;99.90;;;;;;5058098;28;20047;-72
2023/04/05 05:12:33;;;;;;;21.27;16.05;;;-0.70;99.90;;;;;;5049271;28;20444;-72
2023/04/05 05:14:59;;;;;;;23.38;17.15;;;-0.60;99.90;;;;;;5058764;28;20056;-72
2023/04/05 05:17:24;;;;;;;24.20;16.50;;;-0.40;99.90;;;;;;5065764;28;20085;-72
2023/04/05 05:19:50;;;;;;;20.83;14.60;;;-0.10;99.90;;;;;;5056761;28;20048;-72
2023/04/05 05:22:16;;;;;;;19.20;15.02;;;0.20;99.90;;;;;;5059433;28;20052;-72
2023/04/05 05:24:44;;;;;;;22.23;17.00;;;0.60;99.90;;;;;;5061406;28;20057;-72
2023/04/05 05:27:10;;;;;;;21.63;14.98;;;1.00;99.90;;;;;;5064537;28;20394;-72
2023/04/05 05:29:35;;;;;;;22.50;14.60;;;1.40;99.90;;;;;;5061946;28;20055;-72
2023/04/05 05:32:01;;;;;;;23.67;15.32;;;1.80;99.90;;;;;;5061091;28;20036;-72
2023/04/05 05:34:27;;;;;;;25.65;16.10;;;2.20;99.90;;;;;;5065309;28;20106;-73
2023/04/05 05:36:54;;;;;;;19.60;15.90;;;2.60;99.90;;;;;;5064287;28;20056;-72
2023/04/05 05:39:20;;;;;;;24.35;16.77;;;3.00;99.90;;;;;;5065685;28;20133;-72
2023/04/05 05:41:47;;;;;;;22.98;16.23;;;3.30;99.90;;;;;;5064506;28;20557;-72
2023/04/05 05:44:13;;;;;;;24.40;18.02;;;3.10;99.90;;;;;;5062651;28;20502;-72
2023/04/05 05:46:38;;;;;;;24.58;15.98;;;2.90;99.90;;;;;;5061027;28;20048;-72
2023/04/05 05:49:04;;;;;;;23.98;17.50;;;2.80;99.90;;;;;;5060586;28;20059;-72
2023/04/05 05:51:31;;;;;;;26.38;17.17;;;2.60;99.90;;;;;;5059961;28;20041;-72
2023/04/05 05:53:57;;;;;;;24.98;19.73;;;2.50;99.90;;;;;;5064514;28;20097;-72
2023/04/05 05:56:23;;;;;;;26.95;19.60;;;2.40;99.90;;;;;;5065227;28;20059;-72
2023/04/05 05:58:48;;;;;;;26.27;19.02;;;2.40;99.90;;;;;;5063385;28;20052;-72
2023/04/05 06:01:14;;;;;;;21.90;17.88;;;2.50;99.90;;;;;;5064644;28;20041;-71
2023/04/05 06:03:40;;;;;;;22.15;18.08;;;2.90;99.90;;;;;;5060713;28;20061;-72
2023/04/05 06:06:09;;;;;;;24.45;20.02;;;3.70;99.90;;;;;;5054140;28;20409;-71
2023/04/05 06:08:36;;;;;;;28.67;19.88;;;4.30;99.90;;;;;;5061678;28;20048;-72
2023/04/05 06:11:02;;;;;;;25.35;20.50;;;4.60;99.90;;;;;;5061535;28;20750;-72
2023/04/05 06:13:27;;;;;;;22.20;18.63;;;4.60;99.90;;;;;;5065906;28;20048;-72
2023/04/05 06:15:53;;;;;;;23.77;19.77;;;4.60;99.90;;;;;;5064414;28;20048;-72
2023/04/05 06:18:20;;;;;;;22.75;19.42;;;4.90;99.90;;;;;;5068552;28;20040;-72
2023/04/05 06:20:46;;;;;;;31.67;20.02;;;5.20;99.90;;;;;;5049669;28;20056;-72
2023/04/05 06:23:12;;;;;;;26.35;20.08;;;5.30;99.90;;;;;;5060395;28;20028;-72
2023/04/05 06:25:39;;;;;;;27.23;21.08;;;5.60;99.90;;;;;;5066282;28;20147;-72
2023/04/05 06:28:05;;;;;;;28.25;20.92;;;5.60;99.90;;;;;;5059757;28;20413;-72
2023/04/05 06:30:32;;;;;;;29.50;21.45;;;5.60;99.90;;;;;;5048518;28;20060;-72
2023/04/05 06:32:58;;;;;;;41.83;22.17;;;5.50;99.90;;;;;;5066709;28;20052;-71
2023/04/05 06:35:25;;;;;;;28.27;20.40;;;5.50;99.90;;;;;;5055495;28;20041;-71
2023/04/05 06:37:52;;;;;;;28.70;22.33;;;5.40;99.90;;;;;;5067687;28;20057;-73
2023/04/05 06:40:18;;;;;;;30.63;24.48;;;5.10;99.90;;;;;;5064534;28;20538;-73
2023/04/05 06:42:44;;;;;;;31.73;23.38;;;4.80;99.90;;;;;;5071123;28;20059;-71
2023/04/05 06:45:11;;;;;;;28.98;23.63;;;4.40;99.90;;;;;;5065451;28;20052;-70
2023/04/05 06:47:38;;;;;;;35.72;22.48;;;4.00;99.90;;;;;;5067477;28;20466;-72
2023/04/05 06:50:06;;;;;;;35.75;23.95;;;3.60;99.90;;;;;;5066735;28;20109;-72
2023/04/05 06:52:32;;;;;;;32.42;24.90;;;3.50;99.90;;;;;;5062287;28;20335;-72
2023/04/05 06:54:58;;;;;;;31.33;23.67;;;3.40;99.90;;;;;;5050170;28;20127;-72
2023/04/05 06:57:24;;;;;;;31.38;23.83;;;3.60;99.90;;;;;;5055878;28;20139;-72
2023/04/05 06:59:51;;;;;;;28.38;23.20;;;3.90;99.90;;;;;;5067507;28;20044;-72
2023/04/05 07:02:17;;;;;;;33.45;24.85;;;4.10;99.90;;;;;;5062351;28;20592;-72
2023/04/05 07:04:43;;;;;;;34.10;25.30;;;4.20;99.90;;;;;;5059929;28;20061;-72
2023/04/05 07:07:08;;;;;;;27.67;24.08;;;4.10;99.90;;;;;;5057915;28;20051;-72
2023/04/05 07:09:35;;;;;;;30.55;24.10;;;4.10;99.90;;;;;;5059805;28;20094;-72
2023/04/05 07:12:03;;;;;;;30.60;25.65;;;4.10;99.90;;;;;;5067384;28;20047;-73
2023/04/05 07:14:33;;;;;;;30.42;26.33;;;4.10;99.90;;;;;;5067909;28;20154;-73
2023/04/05 07:16:59;;;;;;;27.05;24.10;;;4.20;99.90;;;;;;5068611;28;20044;-73
2023/04/05 07:19:25;;;;;;;36.30;23.08;;;4.20;99.90;;;;;;5067863;28;20114;-73
2023/04/05 07:21:51;;;;;;;31.75;24.95;;;4.30;99.90;;;;;;5061749;28;20091;-73
2023/04/05 07:24:17;;;;;;;39.20;23.90;;;4.40;99.90;;;;;;5067821;28;20037;-73
2023/04/05 07:26:44;;;;;;;26.55;22.73;;;4.60;99.90;;;;;;5067806;28;20082;-72
2023/04/05 07:29:11;;;;;;;25.35;22.52;;;4.80;99.90;;;;;;5066593;28;20445;-73
2023/04/05 07:31:38;;;;;;;37.00;22.73;;;5.00;99.90;;;;;;5068279;28;20517;-73
2023/04/05 07:34:04;;;;;;;26.40;22.02;;;5.00;99.90;;;;;;5068585;28;20035;-73
2023/04/05 07:36:29;;;;;;;25.35;21.20;;;5.10;99.90;;;;;;5067795;28;20040;-73
2023/04/05 07:38:56;;;;;;;26.73;23.35;;;5.10;99.90;;;;;;5066986;28;20473;-73
2023/04/05 07:41:25;;;;;;;27.92;21.65;;;5.10;99.90;;;;;;5067789;28;20044;-73
2023/04/05 07:43:51;;;;;;;29.55;22.33;;;5.30;99.90;;;;;;5074087;28;20048;-74
2023/04/05 07:46:16;;;;;;;25.15;22.30;;;5.40;99.90;;;;;;5066528;28;20097;-73
2023/04/05 07:48:42;;;;;;;23.27;20.13;;;5.40;99.90;;;;;;5061316;28;20071;-73
2023/04/05 07:51:09;;;;;;;25.67;21.73;;;5.60;99.90;;;;;;5065760;28;20121;-73
2023/04/05 07:53:36;;;;;;;20.75;18.65;;;5.90;99.90;;;;;;5067380;28;20059;-73
2023/04/05 07:56:10;;;;;;;25.63;21.52;;;6.10;99.90;;;;;;5066829;28;20496;-73
2023/04/05 07:58:40;;;;;;;28.50;21.05;;;6.10;99.90;;;;;;5062769;28;20536;-73
2023/04/05 08:01:06;;;;;;;28.80;20.75;;;6.30;99.90;;;;;;5049712;28;20132;-73
2023/04/05 08:03:35;;;;;;;25.20;20.50;;;6.50;99.90;;;;;;5046959;28;20055;-73
2023/04/05 08:06:17;;;;;;;23.05;19.13;;;6.70;99.90;;;;;;5051679;28;20048;-73
2023/04/05 08:08:44;;;;;;;23.27;19.00;;;7.00;99.90;;;;;;5063881;28;20044;-73
2023/04/05 08:11:10;;;;;;;23.05;17.85;;;7.20;99.90;;;;;;5058149;28;20119;-73
2023/04/05 08:13:37;;;;;;;19.58;17.40;;;7.40;99.90;;;;;;5068153;28;20156;-73
2023/04/05 08:16:03;;;;;;;21.38;17.63;;;7.60;99.90;;;;;;5062026;28;20402;-73
2023/04/05 08:18:29;;;;;;;19.92;17.88;;;7.80;99.90;;;;;;5058189;28;20028;-73
2023/04/05 08:20:56;;;;;;;22.30;17.88;;;8.00;99.90;;;;;;5060584;28;20057;-73
2023/04/05 08:23:22;;;;;;;27.77;16.87;;;8.10;99.90;;;;;;5061799;28;20055;-73
2023/04/05 08:25:48;;;;;;;21.70;17.02;;;8.20;99.90;;;;;;5059709;28;20417;-73
2023/04/05 08:28:17;;;;;;;19.92;16.30;;;8.40;99.90;;;;;;5057358;28;20041;-73
2023/04/05 08:30:45;;;;;;;22.17;16.92;;;8.70;99.90;;;;;;5056188;28;20509;-73
2023/04/05 08:33:11;;;;;;;22.08;17.33;;;8.80;99.90;;;;;;5060323;28;20570;-73
2023/04/05 08:35:38;;;;;;;34.28;17.27;;;8.80;99.90;;;;;;5065043;28;20041;-74
2023/04/05 08:38:06;;;;;;;19.02;16.05;;;8.80;99.90;;;;;;5055433;28;21729;-74
2023/04/05 08:40:49;;;;;;;17.27;15.45;;;8.70;99.90;;;;;;5054151;28;20041;-74
2023/04/05 08:44:01;;;;;;;23.17;16.90;;;8.80;99.90;;;;;;5061039;28;20079;-73
2023/04/05 08:46:30;;;;;;;18.67;16.63;;;8.90;99.90;;;;;;5042609;28;20061;-74
2023/04/05 08:48:57;;;;;;;25.13;16.23;;;8.90;99.90;;;;;;5046226;28;20089;-74
2023/04/05 08:51:25;;;;;;;18.38;15.13;;;8.90;99.90;;;;;;5065483;28;20041;-74
2023/04/05 08:53:51;;;;;;;16.35;13.88;;;9.10;99.90;;;;;;5055210;28;20047;-74
2023/04/05 08:56:24;;;;;;;14.40;12.88;;;9.20;99.90;;;;;;5066107;28;20037;-74
2023/04/05 08:59:03;;;;;;;19.98;12.77;;;9.20;99.90;;;;;;5061099;28;20048;-74
2023/04/05 09:01:29;;;;;;;;;;;9.30;90.80;;;;;;5060157;28;20048;-74
2023/04/05 09:04:08;;;;;;;16.00;12.32;;;9.20;89.40;;;;;;5048712;28;19921;-73
2023/04/05 09:06:35;;;;;;;14.13;11.43;;;9.40;92.20;;;;;;5066570;28;20050;-73
2023/04/05 09:09:06;;;;;;;16.27;10.80;;;9.60;91.80;;;;;;5062959;28;20764;-73
2023/04/05 09:11:33;;;;;;;16.15;12.35;;;9.90;87.30;;;;;;5060937;28;20063;-72
2023/04/05 09:14:01;;;;;;;16.20;11.18;;;10.10;79.90;;;;;;5063087;28;20187;-74
2023/04/05 09:16:27;;;;;;;16.60;11.07;;;10.20;76.10;;;;;;5063685;28;20383;-73
2023/04/05 09:18:53;;;;;;;13.40;10.57;;;10.00;72.60;;;;;;5060835;28;20733;-74
2023/04/05 09:21:19;;;;;;;16.17;10.40;;;9.90;71.80;;;;;;5052961;28;20044;-73
2023/04/05 09:23:55;;;;;;;10.32;9.15;;;9.90;71.60;;;;;;5050812;28;20106;-74
2023/04/05 09:26:23;;;;;;;14.68;9.32;;;10.10;72.20;;;;;;5063023;28;20064;-73
2023/04/05 09:28:49;;;;;;;14.40;9.93;;;10.40;71.60;;;;;;5060348;28;20052;-73
2023/04/05 09:31:35;;;;;;;10.73;9.63;;;10.60;70.00;;;;;;5066182;28;20097;-73
2023/04/05 09:34:03;;;;;;;11.50;10.32;;;10.90;68.40;;;;;;5060668;28;20048;-74
2023/04/05 09:36:28;;;;;;;14.73;9.50;;;11.10;67.00;;;;;;5057140;28;20082;-74
2023/04/05 09:39:07;;;;;;;13.02;9.35;;;11.30;68.00;;;;;;5058271;28;20028;-74
2023/04/05 09:41:33;;;;;;;11.75;8.45;;;11.30;65.20;;;;;;5056767;28;20053;-74
2023/04/05 09:43:59;;;;;;;17.30;10.00;;;11.10;62.60;;;;;;5056346;28;20152;-74
2023/04/05 09:46:30;;;;;;;12.23;9.75;;;10.80;62.80;;;;;;5065410;28;20119;-74
2023/04/05 09:48:57;;;;;;;11.93;8.57;;;11.00;64.80;;;;;;5064907;28;20413;-74
2023/04/05 09:51:31;;;;;;;7.20;5.65;;;11.00;64.10;;;;;;5064428;28;20052;-74
2023/04/05 09:54:02;;;;;;;10.18;5.80;;;10.50;59.10;;;;;;5059483;28;20456;-74
2023/04/05 09:56:31;;;;;;;9.55;6.78;;;10.10;60.10;;;;;;5066484;28;20037;-74
2023/04/05 09:59:05;;;;;;;9.25;7.72;;;9.90;59.40;;;;;;5063521;28;20440;-74
2023/04/05 10:01:31;;;;;;;16.13;8.63;;;9.90;61.00;;;;;;5063336;28;20509;-74
2023/04/05 10:03:58;;;;;;;12.05;7.72;;;10.00;62.50;;;;;;5063537;28;20520;-74
2023/04/05 10:06:40;;;;;;;8.82;7.22;;;10.10;62.50;;;;;;5065094;28;20505;-73
2023/04/05 10:09:10;;;;;;;12.55;8.88;;;10.30;60.80;;;;;;5056706;28;20564;-74
2023/04/05 10:11:37;;;;;;;14.10;10.25;;;10.40;59.60;;;;;;5056975;28;20406;-74
2023/04/05 10:14:05;;;;;;;20.35;10.23;;;10.50;59.40;;;;;;5062828;28;20049;-74
2023/04/05 10:16:34;;;;;;;13.48;9.93;;;10.50;59.50;;;;;;5064426;28;20072;-73
2023/04/05 10:19:02;;;;;;;15.95;9.52;;;10.60;59.20;;;;;;5052314;28;20045;-74
2023/04/05 10:21:30;;;;;;;13.10;10.73;;;10.60;59.30;;;;;;5068111;28;20051;-74
2023/04/05 10:24:29;;;;;;;14.93;11.90;;;10.80;58.50;;;;;;5062261;28;20049;-73
2023/04/05 10:27:03;;;;;;;13.70;9.85;;;10.90;58.80;;;;;;5067803;28;20052;-73
2023/04/05 10:29:42;;;;;;;17.38;9.93;;;11.10;58.30;;;;;;5051541;28;20401;-73
2023/04/05 10:32:20;;;;;;;12.82;10.63;;;11.20;58.20;;;;;;5065125;28;20044;-73
2023/04/05 10:34:56;;;;;;;12.15;9.23;;;10.90;58.80;;;;;;5067908;28;20095;-73
2023/04/05 10:37:38;;;;;;;16.00;10.82;;;10.80;58.40;;;;;;5058819;28;20526;-73
2023/04/05 10:40:09;;;;;;;11.48;9.10;;;10.80;57.80;;;;;;5056995;28;20103;-74
2023/04/05 10:42:46;;;;;;;15.10;9.77;;;11.00;60.40;;;;;;5062210;28;20445;-74
2023/04/05 10:45:16;;;;;;;12.85;10.45;;;11.10;58.30;;;;;;5065280;28;20049;-74
2023/04/05 10:47:48;;;;;;;16.15;10.07;;;10.80;57.90;;;;;;5067829;28;20049;-74
2023/04/05 10:50:22;;;;;;;14.23;9.38;;;10.50;58.30;;;;;;5051490;28;20476;-74
2023/04/05 10:52:49;;;;;;;12.40;8.80;;;10.10;58.50;;;;;;5061981;28;20102;-74
2023/04/05 10:55:15;;;;;;;16.63;10.63;;;9.90;58.80;;;;;;5065286;28;20052;-74
2023/04/05 10:57:43;;;;;;;10.85;8.82;;;9.60;58.70;;;;;;5060895;28;20049;-73
2023/04/05 11:00:10;;;;;;;11.87;8.63;;;9.50;60.30;;;;;;5066978;28;20048;-73
2023/04/05 11:02:36;;;;;;;12.50;10.00;;;9.40;60.60;;;;;;5067160;28;20310;-73
2023/04/05 11:05:03;;;;;;;16.98;10.27;;;9.20;59.70;;;;;;5068329;28;20060;-73
2023/04/05 11:07:45;;;;;;;13.70;9.23;;;9.30;60.10;;;;;;5062154;28;20060;-73
2023/04/05 11:10:16;;;;;;;11.00;8.32;;;9.70;59.90;;;;;;5060572;28;20049;-74
2023/04/05 11:12:45;;;;;;;14.40;8.95;;;10.00;59.70;;;;;;5065322;28;20123;-74
2023/04/05 11:15:26;;;;;;;14.38;10.00;;;10.30;59.00;;;;;;5064265;28;20041;-74
2023/04/05 11:18:11;;;;;;;9.50;7.90;;;10.50;56.90;;;;;;5067396;28;20456;-74
2023/04/05 11:20:50;;;;;;;16.42;9.32;;;10.60;57.40;;;;;;5066860;28;20043;-74
2023/04/05 11:23:17;;;;;;;14.77;9.27;;;10.80;57.90;;;;;;5052078;28;20571;-74
2023/04/05 11:26:04;;;;;;;11.95;8.10;;;11.00;57.60;;;;;;5060501;28;20049;-74
2023/04/05 11:28:36;;;;;;;12.32;8.15;;;11.10;56.70;;;;;;5063178;28;20045;-74
2023/04/05 11:31:19;;;;;;;14.05;8.50;;;11.10;57.40;;;;;;5061380;28;20044;-74
2023/04/05 11:33:45;;;;;;;13.18;10.10;;;11.30;56.20;;;;;;5056527;28;20056;-74
2023/04/05 11:36:11;;;;;;;13.13;9.80;;;10.90;56.70;;;;;;5059566;28;20790;-74
2023/04/05 11:38:39;;;;;;;11.85;9.40;;;11.00;57.40;;;;;;5057158;28;20521;-74
2023/04/05 11:41:06;;;;;;;17.17;9.05;;;11.30;57.90;;;;;;5062758;28;20489;-74
2023/04/05 11:43:34;;;;;;;15.52;9.77;;;11.70;57.30;;;;;;5066176;28;20237;-74
2023/04/05 11:46:05;;;;;;;12.73;9.27;;;11.60;55.00;;;;;;5062687;28;20056;-74
2023/04/05 11:48:30;;;;;;;15.85;10.35;;;11.20;54.30;;;;;;5067577;28;20052;-73
2023/04/05 11:50:56;;;;;;;17.80;9.82;;;11.30;55.80;;;;;;5066650;28;20047;-74
2023/04/05 11:53:22;;;;;;;15.98;10.77;;;11.30;55.30;;;;;;5066909;28;20420;-74
2023/04/05 11:55:50;;;;;;;17.23;9.95;;;11.30;55.60;;;;;;5061952;28;20048;-74
2023/04/05 11:58:21;;;;;;;12.67;9.27;;;11.40;55.30;;;;;;5057307;28;20044;-74
2023/04/05 12:00:58;;;;;;;14.52;9.93;;;11.40;54.80;;;;;;5055974;28;20296;-74
2023/04/05 12:03:26;;;;;;;12.38;9.90;;;11.40;54.30;;;;;;5063702;28;20052;-73
2023/04/05 12:05:52;;;;;;;14.70;10.73;;;11.50;56.00;;;;;;5066366;28;20059;-74
2023/04/05 12:08:20;;;;;;;13.30;9.68;;;11.90;56.20;;;;;;5066384;28;20307;-74
2023/04/05 12:10:53;;;;;;;16.02;9.63;;;12.30;56.30;;;;;;5064036;28;20041;-74
2023/04/05 12:13:30;;;;;;;15.82;10.63;;;12.20;54.40;;;;;;5060544;28;20160;-74
2023/04/05 12:16:00;;;;;;;12.20;9.77;;;12.10;52.90;;;;;;5057799;28;20513;-74
2023/04/05 12:18:30;;;;;;;20.15;10.50;;;11.80;53.00;;;;;;5059057;28;20055;-74
2023/04/05 12:21:03;;;;;;;14.68;8.95;;;11.60;53.00;;;;;;5066629;28;20052;-74
2023/04/05 12:23:30;;;;;;;18.05;9.80;;;11.60;55.10;;;;;;5056389;28;20442;-75
2023/04/05 12:25:56;;;;;;;11.50;9.32;;;11.40;54.40;;;;;;5060740;28;20409;-74
2023/04/05 12:28:22;;;;;;;15.10;9.43;;;11.30;54.50;;;;;;5057570;28;20051;-74
2023/04/05 12:30:53;;;;;;;15.95;10.57;;;11.50;55.00;;;;;;5056596;28;20041;-74
2023/04/05 12:33:31;;;;;;;14.55;9.75;;;11.30;53.60;;;;;;5057619;28;20055;-74
2023/04/05 12:35:57;;;;;;;16.00;10.90;;;11.30;53.20;;;;;;5061429;28;20109;-74
2023/04/05 12:38:28;;;;;;;14.32;10.48;;;11.20;53.60;;;;;;5062336;28;20083;-74
2023/04/05 12:41:01;;;;;;;13.07;9.48;;;11.30;55.40;;;;;;5058189;28;20047;-74
2023/04/05 12:43:40;;;;;;;17.45;10.20;;;11.60;54.90;;;;;;5063750;28;20036;-73